createdAt,value
2018-11-13T00:00:23.986Z,11.90
2018-11-13T00:02:52.329Z,11.47
2018-11-13T00:05:20.341Z,14.37
2018-11-13T00:07:47.781Z,11.17
2018-11-13T00:10:15.488Z,9.10
2018-11-13T00:12:42.935Z,10.97
2018-11-13T00:15:10.882Z,12.23
2018-11-13T00:17:38.784Z,12.80
2018-11-13T00:20:11.819Z,12.50
2018-11-13T00:22:39.494Z,8.77
2018-11-13T00:25:08.648Z,17.67
2018-11-13T00:27:36.291Z,11.50
2018-11-13T00:30:04.658Z,10.43
2018-11-13T00:32:32.206Z,10.03
2018-11-13T00:34:59.712Z,10.20
2018-11-13T00:37:27.451Z,8.57
2018-11-13T00:39:55.343Z,11.03
2018-11-13T00:42:22.867Z,11.80
2018-11-13T00:44:50.585Z,9.27
2018-11-13T00:47:18.252Z,10.73
2018-11-13T00:49:45.722Z,10.10
2018-11-13T00:52:13.268Z,13.60
2018-11-13T00:54:40.924Z,13.60
2018-11-13T00:57:08.391Z,9.50
2018-11-13T00:59:36.292Z,11.87
2018-11-13T01:02:04.441Z,12.37
2018-11-13T01:04:31.844Z,11.50
2018-11-13T01:06:59.549Z,10.60
2018-11-13T01:09:27.310Z,8.47
2018-11-13T01:11:54.877Z,11.80
2018-11-13T01:14:22.341Z,12.40
2018-11-13T01:16:50.055Z,8.13
2018-11-13T01:19:17.588Z,14.77
2018-11-13T01:21:45.139Z,11.30
2018-11-13T01:24:12.863Z,10.30
2018-11-13T01:26:40.338Z,9.47
2018-11-13T01:29:07.798Z,12.77
2018-11-13T01:31:35.447Z,12.90
2018-11-13T01:34:02.881Z,7.30
2018-11-13T01:36:30.387Z,10.57
2018-11-13T01:38:58.070Z,11.77
2018-11-13T01:41:25.555Z,7.43
2018-11-13T01:43:53.427Z,8.03
2018-11-13T01:46:21.134Z,10.10
2018-11-13T01:48:48.579Z,9.87
2018-11-13T01:51:16.334Z,11.97
2018-11-13T01:53:43.991Z,7.77
2018-11-13T01:56:11.498Z,10.00
2018-11-13T01:58:39.129Z,10.03
2018-11-13T02:01:06.899Z,11.20
2018-11-13T02:03:34.400Z,10.87
2018-11-13T02:06:01.921Z,10.10
2018-11-13T02:08:29.493Z,9.63
2018-11-13T02:10:57.026Z,10.23
2018-11-13T02:13:24.641Z,11.07
2018-11-13T02:15:52.300Z,10.80
2018-11-13T02:18:19.792Z,8.97
2018-11-13T02:20:47.390Z,8.73
2018-11-13T02:23:15.073Z,8.10
2018-11-13T02:25:42.561Z,12.87
2018-11-13T02:28:10.152Z,9.33
2018-11-13T02:30:37.745Z,10.77
2018-11-13T02:33:05.615Z,8.10
2018-11-13T02:35:33.374Z,8.93
2018-11-13T02:38:01.021Z,10.13
2018-11-13T02:40:28.529Z,10.30
2018-11-13T02:42:56.268Z,11.20
2018-11-13T02:45:23.970Z,9.63
2018-11-13T02:47:51.382Z,12.97
2018-11-13T02:50:20.117Z,10.07
2018-11-13T02:52:47.794Z,11.00
2018-11-13T02:55:15.344Z,11.47
2018-11-13T02:57:43.404Z,9.43
2018-11-13T03:00:15.525Z,7.93
2018-11-13T03:02:43.027Z,11.53
2018-11-13T03:05:12.619Z,8.10
2018-11-13T03:07:40.559Z,7.03
2018-11-13T03:10:09.545Z,8.60
2018-11-13T03:12:37.182Z,11.50
2018-11-13T03:15:05.677Z,5.77
2018-11-13T03:17:33.160Z,11.50
2018-11-13T03:20:00.943Z,7.33
2018-11-13T03:22:28.888Z,8.33
2018-11-13T03:24:56.382Z,9.80
2018-11-13T03:27:24.100Z,10.90
2018-11-13T03:29:51.851Z,8.67
2018-11-13T03:32:19.327Z,8.80
2018-11-13T03:34:46.921Z,10.60
2018-11-13T03:37:14.611Z,7.53
2018-11-13T03:39:42.090Z,7.60
2018-11-13T03:42:09.793Z,6.50
2018-11-13T03:44:37.416Z,7.27
2018-11-13T03:47:05.276Z,7.60
2018-11-13T03:49:32.922Z,5.17
2018-11-13T03:52:00.661Z,7.10
2018-11-13T03:54:28.149Z,6.90
2018-11-13T03:56:55.706Z,6.43
2018-11-13T03:59:23.426Z,6.83
2018-11-13T04:01:50.911Z,6.40
2018-11-13T04:04:18.383Z,7.23
2018-11-13T04:06:46.016Z,8.23
2018-11-13T04:09:14.495Z,8.20
2018-11-13T04:11:42.252Z,6.80
2018-11-13T04:14:10.449Z,10.07
2018-11-13T04:16:38.324Z,10.27
2018-11-13T04:19:06.428Z,7.60
2018-11-13T04:21:34.546Z,8.03
2018-11-13T04:24:01.969Z,10.10
2018-11-13T04:26:29.580Z,15.30
2018-11-13T04:28:57.334Z,8.00
2018-11-13T04:31:24.804Z,9.63
2018-11-13T04:33:52.532Z,5.80
2018-11-13T04:36:20.173Z,6.20
2018-11-13T04:38:47.706Z,7.83
2018-11-13T04:41:15.392Z,7.57
2018-11-13T04:43:43.122Z,8.37
2018-11-13T04:46:10.580Z,9.23
2018-11-13T04:48:38.132Z,6.40
2018-11-13T04:51:05.883Z,8.47
2018-11-13T04:53:33.374Z,11.97
2018-11-13T04:56:00.934Z,14.73
2018-11-13T04:58:28.639Z,9.40
2018-11-13T05:00:56.168Z,7.93
2018-11-13T05:03:23.901Z,11.13
2018-11-13T05:05:51.505Z,9.90
2018-11-13T05:08:18.960Z,11.17
2018-11-13T05:10:46.639Z,11.57
2018-11-13T05:13:14.233Z,8.73
2018-11-13T05:15:41.698Z,12.27
2018-11-13T05:18:09.432Z,6.03
2018-11-13T05:20:37.161Z,8.17
2018-11-13T05:23:04.878Z,10.37
2018-11-13T05:25:32.632Z,7.33
2018-11-13T05:28:00.341Z,6.63
2018-11-13T05:30:27.837Z,11.70
2018-11-13T05:32:55.457Z,12.20
2018-11-13T05:35:23.600Z,10.40
2018-11-13T05:37:51.126Z,8.70
2018-11-13T05:40:23.632Z,9.27
2018-11-13T05:42:51.496Z,8.53
2018-11-13T05:45:20.691Z,10.70
2018-11-13T05:47:48.375Z,9.60
2018-11-13T05:50:16.757Z,9.20
2018-11-13T05:52:44.974Z,7.93
2018-11-13T05:55:13.020Z,7.17
2018-11-13T05:57:40.695Z,8.87
2018-11-13T06:00:13.399Z,11.43
2018-11-13T06:02:40.959Z,8.87
2018-11-13T06:05:09.059Z,8.93
2018-11-13T06:07:36.516Z,11.17
2018-11-13T06:10:04.444Z,8.33
2018-11-13T06:12:31.951Z,9.13
2018-11-13T06:14:59.383Z,6.47
2018-11-13T06:17:26.879Z,6.90
2018-11-13T06:19:54.551Z,7.90
2018-11-13T06:22:21.966Z,4.47
2018-11-13T06:24:49.505Z,6.80
2018-11-13T06:27:17.277Z,6.07
2018-11-13T06:29:44.907Z,7.50
2018-11-13T06:32:12.525Z,7.13
2018-11-13T06:34:40.517Z,7.37
2018-11-13T06:37:08.018Z,6.83
2018-11-13T06:39:35.688Z,4.50
2018-11-13T06:42:03.950Z,4.57
2018-11-13T06:44:31.468Z,6.67
2018-11-13T06:46:59.158Z,7.70
2018-11-13T06:49:26.696Z,7.37
2018-11-13T06:51:54.265Z,5.60
2018-11-13T06:54:32.995Z,4.70
2018-11-13T06:57:00.488Z,3.67
2018-11-13T06:59:31.046Z,4.77
2018-11-13T07:01:58.927Z,6.23
2018-11-13T07:04:26.370Z,3.87
2018-11-13T07:06:53.975Z,5.73
2018-11-13T07:09:21.786Z,6.97
2018-11-13T07:11:49.246Z,4.80
2018-11-13T07:14:16.714Z,4.27
2018-11-13T07:16:44.370Z,3.37
2018-11-13T07:19:11.854Z,5.47
2018-11-13T07:21:39.279Z,6.20
2018-11-13T07:24:06.934Z,4.03
2018-11-13T07:26:34.475Z,4.83
2018-11-13T07:29:02.322Z,5.20
2018-11-13T07:31:29.961Z,3.40
2018-11-13T07:33:57.422Z,3.30
2018-11-13T07:36:24.858Z,2.57
2018-11-13T07:38:52.498Z,2.90
2018-11-13T07:41:20.089Z,2.60
2018-11-13T07:43:47.601Z,4.23
2018-11-13T07:46:15.752Z,3.50
2018-11-13T07:48:43.308Z,2.90
2018-11-13T07:51:10.808Z,2.97
2018-11-13T07:53:38.536Z,2.83
2018-11-13T07:56:06.079Z,2.27
2018-11-13T07:58:33.560Z,3.33
2018-11-13T08:01:01.445Z,3.73
2018-11-13T08:03:31.419Z,3.37
2018-11-13T08:05:59.341Z,4.03
2018-11-13T08:08:27.227Z,2.77
2018-11-13T08:10:54.690Z,2.20
2018-11-13T08:13:22.339Z,3.53
2018-11-13T08:15:49.921Z,1.57
2018-11-13T08:18:17.449Z,2.67
2018-11-13T08:20:44.958Z,1.90
2018-11-13T08:23:12.674Z,2.93
2018-11-13T08:25:40.175Z,1.40
2018-11-13T08:28:07.674Z,2.53
2018-11-13T08:30:35.845Z,1.33
2018-11-13T08:33:03.473Z,1.83
2018-11-13T08:35:31.004Z,1.33
2018-11-13T08:37:58.704Z,1.13
2018-11-13T08:40:26.222Z,1.83
2018-11-13T08:42:53.759Z,1.03
2018-11-13T08:45:21.618Z,1.10
2018-11-13T08:47:49.055Z,3.00
2018-11-13T08:50:16.721Z,1.30
2018-11-13T08:52:45.035Z,0.80
2018-11-13T08:55:12.866Z,0.73
2018-11-13T08:57:40.375Z,1.20
2018-11-13T09:00:09.959Z,1.47
2018-11-13T09:02:37.728Z,0.60
2018-11-13T09:05:05.741Z,0.70
2018-11-13T09:07:33.325Z,0.50
2018-11-13T09:10:00.920Z,0.60
2018-11-13T09:12:28.450Z,1.20
2018-11-13T09:14:56.172Z,1.10
2018-11-13T09:17:23.691Z,1.23
2018-11-13T09:19:51.201Z,0.77
2018-11-13T09:22:18.956Z,0.70
2018-11-13T09:24:46.448Z,0.40
2018-11-13T09:27:13.999Z,0.53
2018-11-13T09:29:42.071Z,0.50
2018-11-13T09:32:09.468Z,1.90
2018-11-13T09:34:36.935Z,0.60
2018-11-13T09:37:05.212Z,0.33
2018-11-13T09:39:32.694Z,0.30
2018-11-13T09:42:00.253Z,0.20
2018-11-13T09:44:28.213Z,0.27
2018-11-13T09:46:55.694Z,0.20
2018-11-13T09:49:23.169Z,0.20
2018-11-13T09:51:50.910Z,0.30
2018-11-13T09:54:18.440Z,0.40
2018-11-13T09:56:46.061Z,0.40
2018-11-13T09:59:13.956Z,0.33
2018-11-13T10:01:41.712Z,0.47
2018-11-13T10:04:09.564Z,0.47
2018-11-13T10:06:36.864Z,0.20
2018-11-13T10:09:10.132Z,0.27
2018-11-13T10:11:38.057Z,0.20
2018-11-13T10:14:05.567Z,0.40
2018-11-13T10:16:33.178Z,0.10
2018-11-13T10:19:01.052Z,0.10
2018-11-13T10:21:28.671Z,0.10
2018-11-13T10:23:56.167Z,0.10
2018-11-13T10:26:23.980Z,1.87
2018-11-13T10:28:51.375Z,0.10
2018-11-13T10:31:18.781Z,0.67
2018-11-13T10:33:46.573Z,0.33
2018-11-13T10:36:14.014Z,0.30
2018-11-13T10:42:11.968Z,1.37
2018-11-13T10:44:39.470Z,0.10
2018-11-13T10:47:07.194Z,0.50
2018-11-13T10:49:34.829Z,0.40
2018-11-13T10:52:02.341Z,0.40
2018-11-13T10:54:29.956Z,0.10
2018-11-13T10:56:57.662Z,0.80
2018-11-13T10:59:25.161Z,0.10
2018-11-13T11:01:58.862Z,0.10
2018-11-13T11:04:32.147Z,0.20
2018-11-13T11:07:00.358Z,0.43
2018-11-13T11:09:27.832Z,0.20
2018-11-13T11:11:55.297Z,0.20
2018-11-13T11:14:22.980Z,0.20
2018-11-13T11:16:50.458Z,0.30
2018-11-13T11:19:17.983Z,1.10
2018-11-13T11:21:45.752Z,0.57
2018-11-13T11:24:13.299Z,0.47
2018-11-13T11:26:40.733Z,0.20
2018-11-13T11:29:08.618Z,0.13
2018-11-13T11:31:36.003Z,0.73
2018-11-13T11:34:03.501Z,1.13
2018-11-13T11:36:31.233Z,0.27
2018-11-13T11:38:58.869Z,0.20
2018-11-13T11:41:26.234Z,0.10
2018-11-13T11:43:54.053Z,0.10
2018-11-13T11:46:21.534Z,0.17
2018-11-13T11:48:49.033Z,0.70
2018-11-13T11:51:16.831Z,0.43
2018-11-13T11:53:44.240Z,0.23
2018-11-13T11:56:11.786Z,0.50
2018-11-13T11:58:39.532Z,0.40
2018-11-13T12:01:07.050Z,1.00
2018-11-13T12:03:34.499Z,1.50
2018-11-13T12:06:02.085Z,0.43
2018-11-13T12:08:29.558Z,0.40
2018-11-13T12:10:57.079Z,0.50
2018-11-13T12:13:25.024Z,0.20
2018-11-13T12:15:52.452Z,0.40
2018-11-13T12:18:19.858Z,0.40
2018-11-13T12:20:47.404Z,0.23
2018-11-13T12:23:14.912Z,0.30
2018-11-13T12:25:42.461Z,2.63
2018-11-13T12:28:10.487Z,0.20
2018-11-13T12:30:37.957Z,1.47
2018-11-13T12:33:05.696Z,0.20
2018-11-13T12:35:33.400Z,0.23
2018-11-13T12:38:00.966Z,0.10
2018-11-13T12:40:28.439Z,0.43
2018-11-13T12:42:56.412Z,0.10
2018-11-13T12:45:23.913Z,1.50
2018-11-13T12:47:51.310Z,0.10
2018-11-13T12:50:20.047Z,1.27
2018-11-13T12:52:47.543Z,0.37
2018-11-13T12:55:16.757Z,0.10
2018-11-13T12:57:44.712Z,2.43
2018-11-13T13:00:14.880Z,0.40
2018-11-13T13:02:42.270Z,0.10
2018-11-13T13:05:10.383Z,0.53
2018-11-13T13:07:37.994Z,0.40
2018-11-13T13:10:08.844Z,0.63
2018-11-13T13:12:36.547Z,0.20
2018-11-13T13:15:04.902Z,0.30
2018-11-13T13:17:32.303Z,0.50
2018-11-13T13:20:00.170Z,0.40
2018-11-13T13:22:27.823Z,0.70
2018-11-13T13:24:55.184Z,0.10
2018-11-13T13:27:22.893Z,0.30
2018-11-13T13:29:50.391Z,0.20
2018-11-13T13:32:17.810Z,0.30
2018-11-13T13:34:45.487Z,0.47
2018-11-13T13:37:12.935Z,0.83
2018-11-13T13:39:40.405Z,2.47
2018-11-13T13:42:08.435Z,2.00
2018-11-13T13:44:35.846Z,0.40
2018-11-13T13:47:03.383Z,0.23
2018-11-13T13:49:31.635Z,0.67
2018-11-13T13:51:59.112Z,0.50
2018-11-13T13:54:26.629Z,0.63
2018-11-13T13:56:54.273Z,0.20
2018-11-13T13:59:21.883Z,1.40
2018-11-13T14:01:49.385Z,0.30
2018-11-13T14:04:17.089Z,1.17
2018-11-13T14:06:44.539Z,0.53
2018-11-13T14:09:12.283Z,0.50
2018-11-13T14:11:40.600Z,0.60
2018-11-13T14:14:08.137Z,0.47
2018-11-13T14:16:35.590Z,0.70
2018-11-13T14:19:03.551Z,0.13
2018-11-13T14:21:31.005Z,0.20
2018-11-13T14:23:58.515Z,0.23
2018-11-13T14:26:26.588Z,0.40
2018-11-13T14:28:54.092Z,2.00
2018-11-13T14:31:21.575Z,1.67
2018-11-13T14:33:49.337Z,1.90
2018-11-13T14:36:16.818Z,0.70
2018-11-13T14:38:44.454Z,0.30
2018-11-13T14:41:12.321Z,7.40
2018-11-13T14:43:39.818Z,1.23
2018-11-13T14:46:07.276Z,1.57
2018-11-13T14:48:34.970Z,1.97
2018-11-13T14:51:02.465Z,0.30
2018-11-13T14:53:29.976Z,0.20
2018-11-13T14:55:58.066Z,0.50
2018-11-13T14:58:25.551Z,0.30
2018-11-13T15:00:53.026Z,1.27
2018-11-13T15:03:20.818Z,0.57
2018-11-13T15:05:48.310Z,0.60
2018-11-13T15:08:15.758Z,1.70
2018-11-13T15:10:54.754Z,2.37
2018-11-13T15:13:24.670Z,1.43
2018-11-13T15:15:52.287Z,1.90
2018-11-13T15:18:20.059Z,0.63
2018-11-13T15:20:48.256Z,1.10
2018-11-13T15:23:15.942Z,1.93
2018-11-13T15:25:43.675Z,1.27
2018-11-13T15:28:11.459Z,2.30
2018-11-13T15:30:44.359Z,1.27
2018-11-13T15:33:13.710Z,1.50
2018-11-13T15:35:41.158Z,1.67
2018-11-13T15:38:08.736Z,1.47
2018-11-13T15:40:36.477Z,2.00
2018-11-13T15:43:04.251Z,2.00
2018-11-13T15:45:31.879Z,0.80
2018-11-13T15:48:00.666Z,0.70
2018-11-13T15:50:42.838Z,1.37
2018-11-13T15:53:10.794Z,2.00
2018-11-13T15:55:38.258Z,1.40
2018-11-13T15:58:06.338Z,0.80
2018-11-13T16:00:35.301Z,2.37
2018-11-13T16:03:06.509Z,1.87
2018-11-13T16:05:37.122Z,1.00
2018-11-13T16:08:05.764Z,1.83
2018-11-13T16:10:33.228Z,3.53
2018-11-13T16:13:01.305Z,2.30
2018-11-13T16:15:29.178Z,1.43
2018-11-13T16:17:57.909Z,1.60
2018-11-13T16:20:25.799Z,1.40
2018-11-13T16:22:53.316Z,1.80
2018-11-13T16:25:20.776Z,1.13
2018-11-13T16:27:48.882Z,1.63
2018-11-13T16:30:20.580Z,1.80
2018-11-13T16:32:48.593Z,2.80
2018-11-13T16:35:17.182Z,3.13
2018-11-13T16:37:45.422Z,2.87
2018-11-13T16:40:15.597Z,3.93
2018-11-13T16:42:43.379Z,3.30
2018-11-13T16:45:12.599Z,3.90
2018-11-13T16:47:40.138Z,2.47
2018-11-13T16:50:11.411Z,3.17
2018-11-13T16:52:38.938Z,3.63
2018-11-13T16:55:07.186Z,2.83
2018-11-13T16:57:34.891Z,4.50
2018-11-13T17:00:02.474Z,3.30
2018-11-13T17:02:30.061Z,2.57
2018-11-13T17:04:57.896Z,3.50
2018-11-13T17:07:25.493Z,2.93
2018-11-13T17:09:52.887Z,3.50
2018-11-13T17:12:21.259Z,1.70
2018-11-13T17:14:48.694Z,3.97
2018-11-13T17:17:16.342Z,2.43
2018-11-13T17:19:44.109Z,2.07
2018-11-13T17:22:11.691Z,2.67
2018-11-13T17:24:39.130Z,2.90
2018-11-13T17:27:07.020Z,3.73
2018-11-13T17:29:34.654Z,4.40
2018-11-13T17:32:02.172Z,4.17
2018-11-13T17:34:29.967Z,3.40
2018-11-13T17:36:57.486Z,3.40
2018-11-13T17:39:24.973Z,4.27
2018-11-13T17:41:52.741Z,2.87
2018-11-13T17:44:20.330Z,1.77
2018-11-13T17:46:47.795Z,2.77
2018-11-13T17:49:15.606Z,3.37
2018-11-13T17:51:43.143Z,5.20
2018-11-13T17:54:10.628Z,2.33
2018-11-13T17:56:38.603Z,4.80
2018-11-13T17:59:06.213Z,4.33
2018-11-13T18:01:33.706Z,4.53
2018-11-13T18:04:01.456Z,3.13
2018-11-13T18:06:28.981Z,3.43
2018-11-13T18:08:56.437Z,3.83
2018-11-13T18:11:24.155Z,2.73
2018-11-13T18:13:51.695Z,2.63
2018-11-13T18:16:19.205Z,3.77
2018-11-13T18:18:47.203Z,3.37
2018-11-13T18:21:14.665Z,3.87
2018-11-13T18:23:42.273Z,2.40
2018-11-13T18:26:10.295Z,2.30
2018-11-13T18:28:37.805Z,3.00
2018-11-13T18:31:05.429Z,2.17
2018-11-13T18:33:33.326Z,3.03
2018-11-13T18:36:00.818Z,3.57
2018-11-13T18:38:28.377Z,3.67
2018-11-13T18:41:02.822Z,4.10
2018-11-13T18:43:30.292Z,2.23
2018-11-13T18:45:57.759Z,3.77
2018-11-13T18:48:25.540Z,3.60
2018-11-13T18:50:53.042Z,3.17
2018-11-13T18:53:20.665Z,3.70
2018-11-13T18:55:48.929Z,3.53
2018-11-13T18:58:16.414Z,4.60
2018-11-13T19:00:43.895Z,3.93
2018-11-13T19:03:12.332Z,2.77
2018-11-13T19:05:39.939Z,3.00
2018-11-13T19:08:07.770Z,2.90
2018-11-13T19:10:45.630Z,1.73
2018-11-13T19:13:15.386Z,2.30
2018-11-13T19:15:44.441Z,2.17
2018-11-13T19:18:12.467Z,2.67
2018-11-13T19:20:39.968Z,2.60
2018-11-13T19:23:07.568Z,2.10
2018-11-13T19:25:35.814Z,1.20
2018-11-13T19:28:03.598Z,1.13
2018-11-13T19:30:31.039Z,1.40
2018-11-13T19:32:58.766Z,2.93
2018-11-13T19:35:26.661Z,1.73
2018-11-13T19:37:54.347Z,2.70
2018-11-13T19:40:24.124Z,2.33
2018-11-13T19:42:52.472Z,2.90
2018-11-13T19:45:20.248Z,3.07
2018-11-13T19:47:47.894Z,3.77
2018-11-13T19:50:18.105Z,2.50
2018-11-13T19:52:45.551Z,2.33
2018-11-13T19:55:14.355Z,3.53
2018-11-13T19:57:42.667Z,2.87
2018-11-13T20:00:12.179Z,1.90
2018-11-13T20:02:40.039Z,2.07
2018-11-13T20:05:09.033Z,2.07
2018-11-13T20:07:36.759Z,3.27
2018-11-13T20:10:09.266Z,2.30
2018-11-13T20:12:36.812Z,2.17
2018-11-13T20:15:04.753Z,2.43
2018-11-13T20:17:32.436Z,2.60
2018-11-13T20:19:59.963Z,1.90
2018-11-13T20:22:27.681Z,3.00
2018-11-13T20:24:55.391Z,2.53
2018-11-13T20:27:23.011Z,2.93
2018-11-13T20:29:50.760Z,3.07
2018-11-13T20:32:18.315Z,2.90
2018-11-13T20:34:45.842Z,4.63
2018-11-13T20:37:13.447Z,1.80
2018-11-13T20:39:41.048Z,3.40
2018-11-13T20:42:08.596Z,2.50
2018-11-13T20:44:36.367Z,3.00
2018-11-13T20:47:04.133Z,3.03
2018-11-13T20:49:31.703Z,2.30
2018-11-13T20:51:59.379Z,1.87
2018-11-13T20:54:27.049Z,2.87
2018-11-13T20:56:54.615Z,2.57
2018-11-13T20:59:22.166Z,2.73
2018-11-13T21:01:49.934Z,3.17
2018-11-13T21:04:17.422Z,2.97
2018-11-13T21:06:45.044Z,3.57
2018-11-13T21:09:12.722Z,4.27
2018-11-13T21:11:41.033Z,4.07
2018-11-13T21:14:08.674Z,2.67
2018-11-13T21:16:36.553Z,2.17
2018-11-13T21:19:04.215Z,4.27
2018-11-13T21:21:31.868Z,3.73
2018-11-13T21:23:59.654Z,4.47
2018-11-13T21:26:27.100Z,7.00
2018-11-13T21:28:54.680Z,3.57
2018-11-13T21:31:22.245Z,3.53
2018-11-13T21:33:49.710Z,3.93
2018-11-13T21:36:17.309Z,3.70
2018-11-13T21:38:44.927Z,2.37
2018-11-13T21:41:43.341Z,3.10
2018-11-13T21:44:10.914Z,3.87
2018-11-13T21:46:38.522Z,3.40
2018-11-13T21:49:06.192Z,4.27
2018-11-13T21:51:35.029Z,2.70
2018-11-13T21:57:00.889Z,2.77
2018-11-13T21:59:28.433Z,2.20
2018-11-13T22:01:56.288Z,2.03
2018-11-13T22:04:24.060Z,2.53
2018-11-13T22:06:51.597Z,2.00
2018-11-13T22:09:19.115Z,3.43
2018-11-13T22:11:46.916Z,3.40
2018-11-13T22:14:14.421Z,2.40
2018-11-13T22:16:42.561Z,1.53
2018-11-13T22:19:09.885Z,3.93
2018-11-13T22:21:37.355Z,1.77
2018-11-13T22:24:05.250Z,3.53
2018-11-13T22:26:33.038Z,3.40
2018-11-13T22:29:00.565Z,1.83
2018-11-13T22:31:27.983Z,1.70
2018-11-13T22:33:55.907Z,2.43
2018-11-13T22:36:23.406Z,2.20
2018-11-13T22:38:50.912Z,1.93
2018-11-13T22:41:18.915Z,2.20
2018-11-13T22:43:46.434Z,3.17
2018-11-13T22:46:13.965Z,4.90
2018-11-13T22:48:41.744Z,2.27
2018-11-13T22:51:09.588Z,2.23
2018-11-13T22:53:36.759Z,3.03
2018-11-13T22:56:04.785Z,1.97
2018-11-13T22:58:32.252Z,2.47
2018-11-13T23:00:59.722Z,2.80
2018-11-13T23:03:27.518Z,3.27
2018-11-13T23:05:55.099Z,3.07
2018-11-13T23:08:22.635Z,1.73
2018-11-13T23:10:50.606Z,1.63
2018-11-13T23:13:18.071Z,1.50
2018-11-13T23:15:45.547Z,3.63
2018-11-13T23:18:13.264Z,1.40
2018-11-13T23:20:40.734Z,2.73
2018-11-13T23:23:08.317Z,2.20
2018-11-13T23:25:35.995Z,2.47
2018-11-13T23:28:03.751Z,2.00
2018-11-13T23:30:31.146Z,1.23
2018-11-13T23:32:59.444Z,1.17
2018-11-13T23:35:26.932Z,1.07
2018-11-13T23:37:55.622Z,0.67
2018-11-13T23:40:24.554Z,0.93
2018-11-13T23:42:52.391Z,2.47
2018-11-13T23:45:20.969Z,1.07
2018-11-13T23:47:49.196Z,0.93
2018-11-13T23:50:16.800Z,1.67
2018-11-13T23:52:44.944Z,1.20
2018-11-13T23:55:13.547Z,2.47
2018-11-13T23:57:41.616Z,1.47
